Time;durP1;ratioP1;P1;durP2;ratioP2;P2;SDS_P1;SDS_P2;PMS_P1;PMS_P2;Temp;Humidity;BMP_temperature;BMP_pressure;BME280_temperature;BME280_humidity;BME280_pressure;Samples;Min_cycle;Max_cycle;Signal;HPM_P1;HPM_P2
2022/11/24 00:00:19;;;;;;;19.48;4.57;;;;;;;7.04;100.00;100125.50;5074540;28;20020;-81
2022/11/24 00:02:45;;;;;;;23.23;4.60;;;;;;;7.00;100.00;100116.88;5071062;28;20029;-81
2022/11/24 00:05:10;;;;;;;16.65;4.13;;;;;;;7.00;100.00;100120.38;5069768;28;20422;-80
2022/11/24 00:07:35;;;;;;;23.17;4.32;;;;;;;7.01;100.00;100121.22;5065598;28;20609;-81
2022/11/24 00:10:01;;;;;;;20.23;4.35;;;;;;;7.00;100.00;100115.03;5089430;28;20143;-81
2022/11/24 00:12:26;;;;;;;24.23;5.10;;;;;;;7.00;100.00;100125.72;5071610;28;20020;-81
2022/11/24 00:14:52;;;;;;;17.58;4.60;;;;;;;6.98;100.00;100122.31;5073023;28;20023;-81
2022/11/24 00:17:17;;;;;;;22.48;5.32;;;;;;;6.99;100.00;100140.03;5072280;28;20020;-81
2022/11/24 00:19:42;;;;;;;20.00;5.22;;;;;;;7.02;100.00;100138.13;5055557;28;20024;-81
2022/11/24 00:22:08;;;;;;;21.67;4.53;;;;;;;7.04;100.00;100134.38;5072542;28;20020;-81
2022/11/24 00:24:33;;;;;;;24.27;4.78;;;;;;;7.05;100.00;100138.75;5068673;28;20016;-81
2022/11/24 00:26:58;;;;;;;16.77;4.28;;;;;;;7.04;100.00;100142.38;5058398;28;20087;-81
2022/11/24 00:29:24;;;;;;;21.10;4.70;;;;;;;7.04;100.00;100147.72;5070892;28;20036;-81
2022/11/24 00:31:49;;;;;;;19.45;4.50;;;;;;;7.02;100.00;100144.31;5072118;28;20028;-81
2022/11/24 00:34:15;;;;;;;21.23;4.38;;;;;;;7.02;100.00;100138.13;5071008;28;20043;-81
2022/11/24 00:36:41;;;;;;;24.40;4.45;;;;;;;7.01;100.00;100142.59;5073531;28;20039;-81
2022/11/24 00:39:11;;;;;;;22.05;4.18;;;;;;;7.00;100.00;100147.09;5072166;28;20433;-81
2022/11/24 00:41:36;;;;;;;21.80;5.32;;;;;;;6.98;100.00;100145.50;5088909;28;20024;-81
2022/11/24 00:44:02;;;;;;;17.60;3.92;;;;;;;6.99;100.00;100149.88;5064860;28;20406;-81
2022/11/24 00:46:27;;;;;;;18.83;4.28;;;;;;;6.97;100.00;100136.63;5067012;28;20031;-81
2022/11/24 00:48:53;;;;;;;22.23;4.43;;;;;;;6.98;100.00;100149.03;5068174;28;20056;-81
2022/11/24 00:51:25;;;;;;;16.33;4.28;;;;;;;6.97;100.00;100147.31;5052075;28;20024;-81
2022/11/24 00:53:52;;;;;;;20.48;4.22;;;;;;;7.00;100.00;100159.63;5072912;28;20020;-81
2022/11/24 00:56:17;;;;;;;17.75;3.90;;;;;;;6.98;100.00;100153.50;5088480;28;20063;-81
2022/11/24 00:58:43;;;;;;;22.63;4.57;;;;;;;6.97;100.00;100158.00;5089355;28;20016;-81
2022/11/24 01:01:16;;;;;;;19.05;4.47;;;;;;;6.96;100.00;100161.63;5070551;28;20030;-81
2022/11/24 01:03:41;;;;;;;21.50;4.68;;;;;;;6.96;100.00;100161.63;5073351;28;20160;-81
2022/11/24 01:06:21;;;;;;;16.85;3.90;;;;;;;6.95;100.00;100165.25;5068215;28;20086;-81
2022/11/24 01:08:47;;;;;;;22.08;4.55;;;;;;;6.91;100.00;100170.91;5053828;28;20071;-81
2022/11/24 01:11:18;;;;;;;12.52;3.28;;;;;;;6.93;100.00;100177.88;5058785;28;20492;-81
2022/11/24 01:13:45;;;;;;;20.80;4.30;;;;;;;6.93;100.00;100177.88;5068395;28;20035;-81
2022/11/24 01:16:23;;;;;;;19.05;4.43;;;;;;;6.92;100.00;100176.16;5055705;28;21131;-81
2022/11/24 01:18:50;;;;;;;20.55;3.78;;;;;;;6.91;100.00;100178.94;5064220;28;20081;-81
2022/11/24 01:21:16;;;;;;;23.40;4.80;;;;;;;6.89;100.00;100171.03;5055389;28;20047;-81
2022/11/24 01:23:42;;;;;;;22.98;4.22;;;;;;;6.88;100.00;100174.69;5054590;28;20564;-81
2022/11/24 01:26:09;;;;;;;21.30;4.32;;;;;;;6.88;100.00;100180.03;5072140;28;20044;-81
2022/11/24 01:28:35;;;;;;;19.75;4.13;;;;;;;6.85;100.00;100182.88;5071059;28;20028;-81
2022/11/24 01:31:03;;;;;;;23.92;5.22;;;;;;;6.83;100.00;100179.47;5070532;28;20025;-81
2022/11/24 01:33:30;;;;;;;17.88;4.00;;;;;;;6.80;100.00;100183.19;5070760;28;20017;-81
2022/11/24 01:35:57;;;;;;;19.42;3.63;;;;;;;6.80;100.00;100185.03;5069082;28;20031;-81
2022/11/24 01:38:23;;;;;;;18.42;4.32;;;;;;;6.79;100.00;100183.31;5068275;28;20562;-81
2022/11/24 01:40:48;;;;;;;20.85;5.15;;;;;;;6.79;100.00;100185.97;5063410;28;20103;-81
2022/11/24 01:43:16;;;;;;;22.38;4.18;;;;;;;6.76;100.00;100196.88;5068020;28;20083;-81
2022/11/24 01:45:43;;;;;;;14.13;3.17;;;;;;;6.73;100.00;100191.72;5070054;28;20079;-81
2022/11/24 01:48:26;;;;;;;20.48;4.22;;;;;;;6.77;100.00;100191.41;5071230;28;20056;-81
2022/11/24 01:50:59;;;;;;;25.10;4.82;;;;;;;6.76;100.00;100196.88;5072401;28;20078;-81
2022/11/24 01:53:24;;;;;;;17.20;4.05;;;;;;;6.76;100.00;100197.72;5070529;28;20078;-81
2022/11/24 01:55:52;;;;;;;20.58;4.75;;;;;;;6.77;100.00;100210.13;5070355;28;20060;-81
2022/11/24 01:58:29;;;;;;;16.10;3.78;;;;;;;6.81;100.00;100202.75;5072024;28;20125;-80
2022/11/24 02:00:54;;;;;;;20.33;4.60;;;;;;;6.81;100.00;100200.09;5068052;28;20041;-81
2022/11/24 02:03:25;;;;;;;19.58;4.15;;;;;;;6.81;100.00;100221.47;5069416;28;20041;-81
2022/11/24 02:06:06;;;;;;;19.17;4.18;;;;;;;6.82;100.00;100215.13;5073060;28;20100;-81
2022/11/24 02:08:54;;;;;;;21.70;4.28;;;;;;;6.80;100.00;100219.75;5073064;28;20052;-81
2022/11/24 02:11:22;;;;;;;23.10;4.90;;;;;;;6.77;100.00;100219.94;5069208;28;20078;-81
2022/11/24 02:13:50;;;;;;;18.17;4.50;;;;;;;6.77;100.00;100219.94;5071805;28;20017;-81
2022/11/24 02:16:16;;;;;;;19.85;5.00;;;;;;;6.76;100.00;100227.09;5072345;28;20016;-81
2022/11/24 02:18:42;;;;;;;21.10;4.40;;;;;;;6.75;100.00;100233.41;5069856;28;20421;-81
2022/11/24 02:21:10;;;;;;;17.00;3.85;;;;;;;6.72;100.00;100232.75;5072014;28;20206;-81
2022/11/24 02:23:48;;;;;;;17.83;4.20;;;;;;;6.75;100.00;100241.44;5071748;28;20476;-81
2022/11/24 02:26:35;;;;;;;19.55;3.80;;;;;;;6.76;100.00;100236.94;5070408;28;20047;-81
2022/11/24 02:29:01;;;;;;;19.88;3.70;;;;;;;6.74;100.00;100230.84;5070525;28;20032;-81
2022/11/24 02:31:27;;;;;;;29.10;4.65;;;;;;;6.74;100.00;100228.19;5067197;28;20029;-81
2022/11/24 02:33:54;;;;;;;18.33;4.47;;;;;;;6.75;100.00;100235.19;5067624;28;20025;-81
2022/11/24 02:36:19;;;;;;;16.52;3.95;;;;;;;6.75;100.00;100227.19;5067415;28;20030;-81
2022/11/24 02:38:45;;;;;;;21.13;4.70;;;;;;;6.78;100.00;100238.53;5075196;28;20055;-81
2022/11/24 02:41:15;;;;;;;27.75;5.10;;;;;;;6.81;100.00;100242.81;5073590;28;20050;-81
2022/11/24 02:43:46;;;;;;;20.67;5.03;;;;;;;6.84;100.00;100237.28;5074348;28;20051;-81
2022/11/24 02:46:11;;;;;;;23.90;4.93;;;;;;;6.88;100.00;100245.94;5075069;28;20069;-81
2022/11/24 02:48:37;;;;;;;18.42;4.50;;;;;;;6.93;100.00;100243.81;5075295;28;20047;-81
2022/11/24 02:51:03;;;;;;;20.58;4.78;;;;;;;6.96;100.00;100246.28;5073998;28;20025;-81
2022/11/24 02:53:28;;;;;;;23.55;5.30;;;;;;;6.99;100.00;100248.72;5075960;28;20039;-81
2022/11/24 02:55:54;;;;;;;27.25;5.50;;;;;;;7.02;100.00;100250.34;5074228;28;20060;-81
2022/11/24 02:58:19;;;;;;;20.30;5.13;;;;;;;7.05;100.00;100255.47;5070070;28;20071;-81
2022/11/24 03:00:45;;;;;;;17.17;4.15;;;;;;;7.08;100.00;100256.13;5069121;28;20021;-82
2022/11/24 03:03:10;;;;;;;23.33;4.93;;;;;;;7.11;100.00;100257.72;5072349;28;20033;-81
2022/11/24 03:05:35;;;;;;;21.05;4.63;;;;;;;7.11;100.00;100255.91;5070839;28;20115;-81
2022/11/24 03:08:01;;;;;;;24.20;5.15;;;;;;;7.12;100.00;100254.94;5075914;28;20472;-82
2022/11/24 03:10:27;;;;;;;22.23;5.03;;;;;;;7.13;100.00;100258.47;5072668;28;20131;-81
2022/11/24 03:12:53;;;;;;;19.42;5.10;;;;;;;7.14;100.00;100260.19;5074152;28;20021;-81
2022/11/24 03:15:20;;;;;;;22.33;5.43;;;;;;;7.15;100.00;100265.41;5074291;28;20102;-82
2022/11/24 03:17:46;;;;;;;25.55;5.85;;;;;;;7.18;100.00;100262.53;5074210;28;20032;-81
2022/11/24 03:20:11;;;;;;;21.45;5.53;;;;;;;7.22;100.00;100268.53;5074572;28;20028;-81
2022/11/24 03:22:36;;;;;;;18.02;4.63;;;;;;;7.24;100.00;100271.09;5072342;28;20036;-81
2022/11/24 03:25:03;;;;;;;30.90;5.07;;;;;;;7.27;100.00;100274.41;5074006;28;20029;-81
2022/11/24 03:27:30;;;;;;;22.08;5.45;;;;;;;7.26;100.00;100271.84;5069617;28;20025;-81
2022/11/24 03:29:55;;;;;;;20.85;5.18;;;;;;;7.28;100.00;100276.13;5063258;28;20083;-81
2022/11/24 03:32:20;;;;;;;23.30;5.15;;;;;;;7.32;100.00;100274.97;5060280;28;20060;-81
2022/11/24 03:34:46;;;;;;;18.50;4.80;;;;;;;7.34;100.00;100272.19;5073393;28;20396;-81
2022/11/24 03:37:11;;;;;;;25.33;5.50;;;;;;;7.35;100.00;100280.09;5061441;28;20024;-81
2022/11/24 03:39:36;;;;;;;29.75;5.72;;;;;;;7.39;100.00;100277.22;5065216;28;20039;-81
2022/11/24 03:42:02;;;;;;;24.55;5.07;;;;;;;7.39;100.00;100277.22;5068896;28;20043;-81
2022/11/24 03:44:27;;;;;;;25.83;5.05;;;;;;;7.41;100.00;100280.63;5072958;28;20424;-82
2022/11/24 03:46:53;;;;;;;22.10;5.72;;;;;;;7.43;100.00;100276.03;5070413;28;20060;-82
2022/11/24 03:49:21;;;;;;;18.80;5.05;;;;;;;7.45;100.00;100280.31;5074689;28;20033;-81
2022/11/24 03:51:46;;;;;;;20.10;4.13;;;;;;;7.48;100.00;100280.13;5072929;28;20459;-82
2022/11/24 03:54:12;;;;;;;24.70;4.50;;;;;;;7.50;100.00;100269.31;5072771;28;20023;-82
2022/11/24 03:56:37;;;;;;;26.70;5.65;;;;;;;7.53;100.00;100277.13;5072247;28;20027;-81
2022/11/24 03:59:02;;;;;;;27.50;5.53;;;;;;;7.55;100.00;100280.53;5072024;28;20060;-81
2022/11/24 04:01:28;;;;;;;27.15;6.32;;;;;;;7.55;100.00;100275.16;5072868;28;20024;-81
2022/11/24 04:03:53;;;;;;;24.23;6.00;;;;;;;7.57;100.00;100272.38;5072916;28;20591;-81
2022/11/24 04:06:19;;;;;;;28.73;6.15;;;;;;;7.55;100.00;100285.88;5066790;28;20043;-81
2022/11/24 04:08:44;;;;;;;22.92;4.13;;;;;;;7.59;100.00;100289.19;5073040;28;20480;-81
2022/11/24 04:12:42;;;;;;;29.48;5.97;;;;;;;7.58;100.00;100296.34;5072579;28;20028;-82
2022/11/24 04:13:54;;;;;;;18.48;4.63;;;;;;;7.60;100.00;100294.44;5072249;28;20032;-82
2022/11/24 04:16:20;;;;;;;29.88;5.82;;;;;;;7.62;100.00;100307.69;5067590;28;20385;-82
2022/11/24 04:18:45;;;;;;;34.90;6.05;;;;;;;7.61;100.00;100314.84;5068317;28;20029;-82
2022/11/24 04:21:10;;;;;;;21.58;5.13;;;;;;;7.62;100.00;100321.06;5072134;28;20029;-81
2022/11/24 04:23:35;;;;;;;27.27;5.45;;;;;;;7.62;100.00;100332.63;5071127;28;20202;-81
2022/11/24 04:26:01;;;;;;;22.90;4.55;;;;;;;7.62;100.00;100329.94;5073284;28;21096;-82
2022/11/24 04:28:26;;;;;;;22.40;4.55;;;;;;;7.63;100.00;100337.00;5068544;28;20112;-82
2022/11/24 04:30:51;;;;;;;21.95;4.35;;;;;;;7.60;100.00;100339.91;5061190;28;20024;-83
2022/11/24 04:33:16;;;;;;;16.08;3.95;;;;;;;7.60;100.00;100345.25;5061447;28;20032;-82
2022/11/24 04:35:42;;;;;;;25.08;4.80;;;;;;;7.59;100.00;100346.22;5069930;28;20489;-82
2022/11/24 04:38:07;;;;;;;20.33;4.18;;;;;;;7.56;100.00;100343.75;5055167;28;20031;-82
2022/11/24 04:40:33;;;;;;;16.80;4.00;;;;;;;7.53;100.00;100343.97;5067769;28;20059;-82
2022/11/24 04:42:58;;;;;;;17.55;3.85;;;;;;;7.49;100.00;100345.13;5069945;28;20100;-81
2022/11/24 04:45:23;;;;;;;13.00;3.40;;;;;;;7.49;100.00;100345.13;5073982;28;20033;-81
2022/11/24 04:47:49;;;;;;;16.23;3.60;;;;;;;7.45;100.00;100351.63;5071932;28;20544;-81
2022/11/24 04:50:15;;;;;;;20.73;3.75;;;;;;;7.42;100.00;100354.53;5071199;28;20062;-81
2022/11/24 04:52:40;;;;;;;9.98;2.60;;;;;;;7.40;100.00;100346.63;5070732;28;20483;-81
2022/11/24 04:55:06;;;;;;;11.32;2.60;;;;;;;7.38;100.00;100364.59;5071363;28;20024;-81
2022/11/24 04:57:34;;;;;;;12.00;2.42;;;;;;;7.37;100.00;100354.00;5072725;28;20031;-81
2022/11/24 05:00:00;;;;;;;8.70;2.42;;;;;;;7.33;100.00;100367.53;5071845;28;20098;-81
2022/11/24 05:02:25;;;;;;;14.20;3.13;;;;;;;7.31;100.00;100361.47;5070233;28;20029;-81
2022/11/24 05:04:50;;;;;;;11.77;3.05;;;;;;;7.29;100.00;100355.38;5071900;28;20028;-81
2022/11/24 05:07:17;;;;;;;10.05;2.78;;;;;;;7.27;100.00;100357.28;5071523;28;20476;-81
2022/11/24 05:12:30;;;;;;;9.90;2.80;;;;;;;7.25;100.00;100363.72;5072925;28;20065;-81
2022/11/24 05:14:57;;;;;;;12.52;2.90;;;;;;;7.24;100.00;100362.84;5073232;28;20032;-81
2022/11/24 05:17:22;;;;;;;9.93;2.55;;;;;;;7.24;100.00;100368.19;5071677;28;20024;-81
2022/11/24 05:19:47;;;;;;;13.27;2.92;;;;;;;7.23;100.00;100374.47;5074363;28;20482;-81
2022/11/24 05:22:13;;;;;;;14.20;2.47;;;;;;;7.21;100.00;100378.22;5073808;28;20033;-81
2022/11/24 05:24:38;;;;;;;11.00;1.92;;;;;;;7.18;100.00;100374.78;5071177;28;20070;-81
2022/11/24 05:27:03;;;;;;;13.30;2.92;;;;;;;7.19;100.00;100386.34;5067663;28;20041;-81
2022/11/24 05:29:29;;;;;;;12.57;2.17;;;;;;;7.18;100.00;100387.31;5068521;28;20028;-81
2022/11/24 05:31:54;;;;;;;11.40;2.58;;;;;;;7.17;100.00;100389.13;5065285;28;20032;-81
2022/11/24 05:34:19;;;;;;;19.40;3.13;;;;;;;7.16;100.00;100386.56;5080223;28;21154;-81
2022/11/24 05:36:53;;;;;;;20.65;4.00;;;;;;;7.17;100.00;100390.91;5070677;28;20115;-81
2022/11/24 05:39:20;;;;;;;21.33;4.53;;;;;;;7.18;100.00;100395.31;5068119;28;20021;-81
2022/11/24 05:41:45;;;;;;;12.88;3.45;;;;;;;7.20;100.00;100401.41;5052201;28;20035;-81
2022/11/24 05:44:10;;;;;;;14.95;3.78;;;;;;;7.23;100.00;100405.69;5068104;28;20123;-81
2022/11/24 05:46:36;;;;;;;17.33;3.90;;;;;;;7.23;100.00;100409.22;5071464;28;20063;-81
2022/11/24 05:49:01;;;;;;;23.20;3.60;;;;;;;7.25;100.00;100409.16;5061800;28;20505;-81
2022/11/24 05:51:27;;;;;;;20.77;4.35;;;;;;;7.27;100.00;100408.06;5069157;28;20052;-81
2022/11/24 05:53:52;;;;;;;25.10;5.18;;;;;;;7.28;100.00;100416.97;5069044;28;20023;-81
2022/11/24 05:56:17;;;;;;;18.98;4.30;;;;;;;7.32;100.00;100427.34;5069408;28;20372;-81
2022/11/24 05:58:42;;;;;;;20.50;4.72;;;;;;;7.32;100.00;100427.34;5069460;28;20403;-81
2022/11/24 06:01:08;;;;;;;18.38;3.65;;;;;;;7.33;100.00;100429.03;5068765;28;20165;-81
2022/11/24 06:03:33;;;;;;;21.20;3.60;;;;;;;7.35;100.00;100435.16;5069109;28;20036;-81
2022/11/24 06:05:58;;;;;;;14.50;3.63;;;;;;;7.38;100.00;100443.91;5067240;28;20387;-81
2022/11/24 06:08:24;;;;;;;16.40;3.83;;;;;;;7.40;100.00;100450.88;5077121;28;20037;-81
2022/11/24 06:10:49;;;;;;;18.45;3.55;;;;;;;7.41;100.00;100460.63;5058507;28;20115;-81
2022/11/24 06:13:14;;;;;;;15.40;2.97;;;;;;;7.43;100.00;100457.84;5067473;28;20032;-81
2022/11/24 06:15:40;;;;;;;14.95;3.63;;;;;;;7.44;100.00;100454.22;5059852;28;20432;-81
2022/11/24 06:18:05;;;;;;;10.02;2.50;;;;;;;7.44;100.00;100459.56;5066749;28;20047;-82
2022/11/24 06:20:30;;;;;;;14.93;3.50;;;;;;;7.44;100.00;100462.25;5055358;28;20389;-82
2022/11/24 06:23:00;;;;;;;11.50;3.53;;;;;;;7.45;100.00;100466.59;5070013;28;20119;-81
2022/11/24 06:25:25;;;;;;;16.42;3.75;;;;;;;7.45;100.00;100471.97;5069320;28;20028;-81
2022/11/24 06:27:50;;;;;;;14.82;3.60;;;;;;;7.44;100.00;100475.63;5070638;28;20039;-82
2022/11/24 06:30:16;;;;;;;22.60;3.42;;;;;;;7.44;100.00;100486.31;5065892;28;20031;-81
2022/11/24 06:32:43;;;;;;;11.48;2.58;;;;;;;7.44;100.00;100488.97;5065706;28;20024;-81
2022/11/24 06:35:10;;;;;;;10.73;2.28;;;;;;;7.41;100.00;100500.72;5068932;28;20029;-81
2022/11/24 06:37:36;;;;;;;9.15;2.10;;;;;;;7.41;100.00;100494.50;5068133;28;20111;-81
2022/11/24 06:40:01;;;;;;;12.98;2.35;;;;;;;7.41;100.00;100510.53;5068768;28;20056;-82
2022/11/24 06:42:27;;;;;;;13.05;2.38;;;;;;;7.40;100.00;100517.72;5067597;28;20028;-81
2022/11/24 06:44:52;;;;;;;13.13;3.08;;;;;;;7.42;100.00;100520.28;5061987;28;20040;-81
2022/11/24 06:47:17;;;;;;;10.00;2.40;;;;;;;7.40;100.00;100525.75;5065786;28;20017;-82
2022/11/24 06:49:42;;;;;;;15.73;3.10;;;;;;;7.40;100.00;100522.22;5067898;28;20031;-82
2022/11/24 06:52:08;;;;;;;19.60;3.40;;;;;;;7.38;100.00;100530.34;5071263;28;20032;-81
2022/11/24 06:54:33;;;;;;;11.60;2.38;;;;;;;7.35;100.00;100531.41;5060779;28;20056;-82
2022/11/24 06:56:59;;;;;;;7.90;2.40;;;;;;;7.31;100.00;100537.88;5061550;28;20033;-81
2022/11/24 06:59:25;;;;;;;15.27;2.95;;;;;;;7.27;100.00;100543.53;5053556;28;20028;-81
2022/11/24 07:01:51;;;;;;;16.42;2.45;;;;;;;7.22;100.00;100546.50;5075891;28;20471;-82
2022/11/24 07:04:16;;;;;;;10.43;2.35;;;;;;;7.16;100.00;100546.91;5078303;28;20043;-82
2022/11/24 07:06:42;;;;;;;14.75;2.35;;;;;;;7.13;100.00;100558.66;5060111;28;20017;-82
2022/11/24 07:09:09;;;;;;;10.18;2.13;;;;;;;7.10;100.00;100571.31;5075161;28;20279;-82
2022/11/24 07:11:35;;;;;;;13.60;2.53;;;;;;;7.07;100.00;100569.72;5079965;22;20484;-82
2022/11/24 07:14:01;;;;;;;7.97;2.03;;;;;;;7.08;100.00;100579.44;5038212;28;20032;-82
2022/11/24 07:16:27;;;;;;;11.30;2.38;;;;;;;7.07;100.00;100590.22;5039727;28;20035;-82
2022/11/24 07:18:54;;;;;;;10.65;2.22;;;;;;;7.06;100.00;100600.06;5035791;28;20087;-82
2022/11/24 07:21:21;;;;;;;11.43;2.58;;;;;;;7.07;100.00;100601.81;5050036;28;20401;-81
2022/11/24 07:23:48;;;;;;;12.30;2.22;;;;;;;7.08;100.00;100611.50;5071008;28;20033;-82
2022/11/24 07:26:14;;;;;;;6.80;2.00;;;;;;;7.09;100.00;100609.72;5044075;28;20040;-82
2022/11/24 07:28:42;;;;;;;14.23;3.00;;;;;;;7.09;100.00;100607.91;5067744;28;20435;-81
2022/11/24 07:31:09;;;;;;;11.40;2.03;;;;;;;7.09;100.00;100620.41;5037124;28;20092;-81
2022/11/24 07:33:35;;;;;;;12.77;2.53;;;;;;;7.05;100.00;100617.06;5042285;28;20060;-81
2022/11/24 07:36:02;;;;;;;10.75;2.35;;;;;;;7.04;100.00;100620.66;5068233;28;20025;-81
2022/11/24 07:38:29;;;;;;;10.85;2.33;;;;;;;7.00;100.00;100622.69;5067470;28;20047;-81
2022/11/24 07:40:59;;;;;;;10.07;2.35;;;;;;;6.97;100.00;100628.22;5045477;28;20066;-82
2022/11/24 07:43:24;;;;;;;;;;;;;;;7.02;100.00;100624.41;5044789;28;20086;-82
2022/11/24 07:45:51;;;;;;;7.30;2.13;;;;;;;6.92;100.00;100632.13;5042559;28;19966;-82
2022/11/24 07:48:16;;;;;;;11.32;2.30;;;;;;;6.88;100.00;100636.81;5061187;28;20501;-81
2022/11/24 07:50:42;;;;;;;10.80;2.03;;;;;;;6.86;100.00;100633.38;5041794;28;20055;-81
2022/11/24 07:53:07;;;;;;;11.25;2.60;;;;;;;6.82;100.00;100643.38;5040819;28;20032;-81
2022/11/24 07:55:32;;;;;;;13.63;2.22;;;;;;;6.81;100.00;100649.69;5040669;28;20021;-82
2022/11/24 07:57:59;;;;;;;9.63;2.20;;;;;;;6.79;100.00;100650.72;5048593;28;20502;-81
2022/11/24 08:00:26;;;;;;;5.15;1.75;;;;;;;6.79;100.00;100654.25;5041044;28;20911;-82
2022/11/24 08:02:51;;;;;;;12.32;2.95;;;;;;;6.79;100.00;100664.06;5043149;28;20074;-81
2022/11/24 08:05:16;;;;;;;10.80;2.38;;;;;;;6.80;100.00;100668.47;5059939;28;20032;-81
2022/11/24 08:07:41;;;;;;;15.40;2.55;;;;;;;6.79;100.00;100670.28;5043442;28;20040;-81
2022/11/24 08:10:07;;;;;;;10.00;2.42;;;;;;;6.79;100.00;100678.31;5042374;28;20028;-82
2022/11/24 08:12:32;;;;;;;14.02;2.85;;;;;;;6.80;100.00;100681.81;5048357;28;20096;-82
2022/11/24 08:14:58;;;;;;;9.60;2.30;;;;;;;6.79;100.00;100680.97;5039945;28;20436;-81
2022/11/24 08:17:24;;;;;;;10.93;2.85;;;;;;;6.80;100.00;100677.34;5045195;28;20025;-81
2022/11/24 08:19:49;;;;;;;11.05;2.35;;;;;;;6.82;100.00;100693.25;5030262;28;20377;-81
2022/11/24 08:22:15;;;;;;;15.77;2.88;;;;;;;6.82;100.00;100699.50;5023214;28;20102;-81
2022/11/24 08:24:45;;;;;;;15.27;2.95;;;;;;;6.85;100.00;100706.44;5028817;28;20022;-82
2022/11/24 08:27:11;;;;;;;17.75;3.08;;;;;;;6.86;100.00;100710.84;5024712;28;20026;-82
2022/11/24 08:29:36;;;;;;;19.95;2.92;;;;;;;6.86;100.00;100702.81;5012552;28;20029;-81
2022/11/24 08:32:02;;;;;;;9.90;2.72;;;;;;;6.88;100.00;100706.28;5008125;28;20038;-82
2022/11/24 08:34:27;;;;;;;14.35;2.40;;;;;;;6.88;100.00;100705.41;5013417;28;20022;-82
2022/11/24 08:36:52;;;;;;;10.70;2.60;;;;;;;6.88;100.00;100711.63;5025933;28;20025;-82
2022/11/24 08:39:19;;;;;;;12.85;2.70;;;;;;;6.90;100.00;100717.72;5016138;28;20041;-83
2022/11/24 08:41:44;;;;;;;9.98;2.72;;;;;;;6.92;100.00;100730.97;5016135;28;20083;-82
2022/11/24 08:44:10;;;;;;;10.10;2.95;;;;;;;6.95;100.00;100736.13;5016112;28;20045;-82
2022/11/24 08:46:35;;;;;;;18.17;3.78;;;;;;;6.96;100.00;100733.38;5034218;28;20100;-82
2022/11/24 08:49:01;;;;;;;16.50;2.65;;;;;;;6.99;100.00;100737.69;5018259;28;20060;-82
2022/11/24 08:51:27;;;;;;;16.10;2.78;;;;;;;7.02;100.00;100736.66;5012042;28;20029;-82
2022/11/24 08:53:58;;;;;;;18.05;3.40;;;;;;;7.03;100.00;100755.25;5016175;28;20029;-82
2022/11/24 08:56:24;;;;;;;12.88;3.20;;;;;;;7.06;100.00;100759.53;5042945;28;20033;-82
2022/11/24 08:58:50;;;;;;;16.25;3.35;;;;;;;7.09;100.00;100762.03;5049813;28;20029;-82
2022/11/24 09:01:16;;;;;;;16.70;3.80;;;;;;;7.10;100.00;100758.41;5042573;28;20471;-81
2022/11/24 09:03:43;;;;;;;16.00;2.90;;;;;;;7.11;100.00;100760.97;5020339;28;20369;-82
2022/11/24 09:06:09;;;;;;;15.82;3.78;;;;;;;7.13;100.00;100774.25;5049258;28;20416;-82
2022/11/24 09:08:36;;;;;;;16.52;3.50;;;;;;;7.17;100.00;100778.47;5029955;28;20520;-82
2022/11/24 09:11:04;;;;;;;14.82;3.55;;;;;;;7.20;100.00;100774.75;5047441;28;20577;-82
2022/11/24 09:13:29;;;;;;;15.38;3.30;;;;;;;7.22;100.00;100773.72;5022024;28;20465;-82
2022/11/24 09:15:55;;;;;;;10.63;3.15;;;;;;;7.24;100.00;100774.47;5048572;28;20142;-82
2022/11/24 09:18:21;;;;;;;20.25;4.03;;;;;;;7.29;100.00;100780.41;5029634;28;20377;-82
2022/11/24 09:20:46;;;;;;;13.60;3.50;;;;;;;7.32;100.00;100784.69;5029993;28;20089;-82
2022/11/24 09:23:12;;;;;;;16.65;3.65;;;;;;;7.33;100.00;100778.41;5033390;28;20591;-81
2022/11/24 09:25:37;;;;;;;19.65;3.92;;;;;;;7.35;100.00;100792.56;5030220;28;20354;-82
2022/11/24 09:28:02;;;;;;;18.75;3.45;;;;;;;7.38;100.00;100799.50;5050936;28;20032;-82
2022/11/24 09:30:28;;;;;;;18.80;4.40;;;;;;;7.41;100.00;100805.53;5019916;28;20108;-82
2022/11/24 09:32:56;;;;;;;16.10;2.78;;;;;;;7.45;100.00;100800.84;5027673;28;20101;-82
2022/11/24 09:35:22;;;;;;;16.92;3.63;;;;;;;7.48;100.00;100806.00;5050975;28;20025;-82
2022/11/24 09:37:47;;;;;;;17.48;3.60;;;;;;;7.50;100.00;100804.13;5024801;28;20029;-81
2022/11/24 09:40:15;;;;;;;18.13;4.82;;;;;;;7.53;100.00;100812.78;5019168;28;20028;-81
2022/11/24 09:42:50;;;;;;;22.92;4.38;;;;;;;7.56;100.00;100806.41;5050132;28;20029;-82
2022/11/24 09:45:31;;;;;;;18.80;4.00;;;;;;;7.60;100.00;100810.63;5032096;28;20029;-81
2022/11/24 09:48:09;;;;;;;20.48;4.55;;;;;;;7.64;100.00;100813.94;5032608;28;20438;-82
2022/11/24 09:50:36;;;;;;;16.10;3.63;;;;;;;7.67;100.00;100820.00;5048726;28;20068;-82
2022/11/24 09:53:04;;;;;;;14.27;3.55;;;;;;;7.72;100.00;100833.06;5027474;28;20037;-82
2022/11/24 09:55:48;;;;;;;19.42;4.13;;;;;;;7.77;100.00;100838.13;5029029;28;20017;-82
2022/11/24 09:58:32;;;;;;;15.05;3.88;;;;;;;7.81;100.00;100842.34;5044318;28;20128;-82
2022/11/24 10:00:58;;;;;;;21.33;4.28;;;;;;;7.83;100.00;100840.44;5027137;28;20049;-82
2022/11/24 10:03:30;;;;;;;16.75;4.25;;;;;;;7.86;100.00;100846.47;5050967;28;20454;-82
2022/11/24 10:05:58;;;;;;;19.35;3.50;;;;;;;7.90;99.74;100841.78;5030666;28;20421;-82
2022/11/24 10:08:53;;;;;;;17.77;3.47;;;;;;;7.94;100.00;100837.09;5028957;28;20029;-81
2022/11/24 10:11:42;;;;;;;19.58;3.78;;;;;;;7.98;100.00;100850.19;5042434;28;20057;-82
2022/11/24 10:14:38;;;;;;;19.20;3.87;;;;;;;8.02;100.00;100854.41;5029805;28;20021;-82
2022/11/24 10:17:20;;;;;;;17.35;4.05;;;;;;;8.03;99.56;100850.75;5045566;28;20037;-81
2022/11/24 10:20:08;;;;;;;21.13;4.47;;;;;;;8.06;99.49;100852.38;5043680;28;20033;-83
2022/11/24 10:22:45;;;;;;;24.23;6.20;;;;;;;8.10;98.82;100858.41;5026060;28;20033;-82
2022/11/24 10:25:19;;;;;;;23.67;5.78;;;;;;;8.13;98.56;100866.25;5016150;28;20076;-82
2022/11/24 10:28:02;;;;;;;19.73;3.80;;;;;;;8.15;98.55;100870.53;5032866;28;20032;-83
2022/11/24 10:30:28;;;;;;;20.40;4.55;;;;;;;8.17;98.68;100867.75;5050882;28;20063;-82
2022/11/24 10:33:02;;;;;;;20.33;4.35;;;;;;;8.22;99.03;100877.22;5025268;28;20514;-82
2022/11/24 10:35:35;;;;;;;22.95;5.20;;;;;;;8.26;99.13;100877.91;5047682;28;20025;-82
2022/11/24 10:38:29;;;;;;;17.80;3.65;;;;;;;8.31;98.03;100881.13;5031530;28;20025;-82
2022/11/24 10:41:04;;;;;;;14.40;3.80;;;;;;;8.36;98.65;100875.47;5028653;28;20032;-82
2022/11/24 10:43:29;;;;;;;18.83;3.83;;;;;;;8.38;99.00;100886.97;5043209;28;20053;-82
2022/11/24 10:46:09;;;;;;;21.25;4.25;;;;;;;8.42;98.01;100882.28;5032601;28;20413;-82
2022/11/24 10:48:48;;;;;;;26.40;4.90;;;;;;;8.44;97.54;100883.94;5031838;28;20057;-82
2022/11/24 10:51:39;;;;;;;12.47;3.30;;;;;;;8.48;97.78;100881.94;5028341;28;20032;-82
2022/11/24 10:54:17;;;;;;;20.17;4.68;;;;;;;8.49;97.08;100880.97;4935352;29;20334;-82
2022/11/24 10:56:44;;;;;;;19.48;3.53;;;;;;;8.52;96.36;100880.75;4922757;29;20463;-83
2022/11/24 10:59:23;;;;;;;12.57;3.30;;;;;;;8.56;97.69;100882.28;4943955;29;20039;-83
2022/11/24 11:01:52;;;;;;;14.67;3.70;;;;;;;8.61;96.76;100882.88;4920304;29;20044;-83
2022/11/24 11:04:23;;;;;;;24.08;3.95;;;;;;;8.63;97.35;100880.94;4917128;29;20167;-83
2022/11/24 11:06:49;;;;;;;15.25;3.55;;;;;;;8.65;96.61;100873.63;4920376;29;20361;-82
2022/11/24 11:09:21;;;;;;;22.92;4.15;;;;;;;8.69;97.52;100880.53;4945382;29;20074;-83
2022/11/24 11:11:47;;;;;;;11.88;3.22;;;;;;;8.71;96.27;100880.44;4931086;29;20079;-83
2022/11/24 11:14:34;;;;;;;14.18;3.78;;;;;;;8.74;97.11;100878.41;4936224;29;20036;-83
2022/11/24 11:17:00;;;;;;;20.77;4.72;;;;;;;8.76;95.31;100886.38;4918473;29;20077;-82
2022/11/24 11:19:37;;;;;;;24.48;3.70;;;;;;;8.81;96.38;100872.66;4927475;29;20117;-82
2022/11/24 11:22:11;;;;;;;20.35;4.53;;;;;;;8.83;95.87;100870.72;4929499;29;20144;-82
2022/11/24 11:24:38;;;;;;;16.73;4.25;;;;;;;8.86;94.94;100876.75;4936387;29;20039;-82